Time;durP1;ratioP1;P1;durP2;ratioP2;P2;SDS_P1;SDS_P2;PMS_P1;PMS_P2;Temp;Humidity;BMP_temperature;BMP_pressure;BME280_temperature;BME280_humidity;BME280_pressure;Samples;Min_cycle;Max_cycle;Signal;HPM_P1;HPM_P2
2024/01/12 00:01:45;;;;;;;18.55;3.95;;;1.90;99.90;;;;;;5091365;28;20087;-63
2024/01/12 00:04:11;;;;;;;13.43;3.58;;;1.80;99.90;;;;;;5120170;27;20059;-64
2024/01/12 00:06:38;;;;;;;12.68;3.50;;;1.70;99.90;;;;;;5088768;27;20048;-64
2024/01/12 00:09:04;;;;;;;14.15;4.32;;;1.70;99.90;;;;;;5100600;28;20587;-64
2024/01/12 00:11:30;;;;;;;12.43;4.07;;;1.70;99.90;;;;;;5087014;28;20118;-64
2024/01/12 00:13:56;;;;;;;19.70;4.65;;;1.70;99.90;;;;;;5101871;28;20123;-64
2024/01/12 00:16:21;;;;;;;14.23;4.32;;;1.80;99.90;;;;;;5091142;28;20480;-64
2024/01/12 00:18:47;;;;;;;10.10;4.28;;;2.00;99.90;;;;;;5124799;27;20052;-64
2024/01/12 00:21:13;;;;;;;15.27;4.47;;;1.90;99.90;;;;;;5120040;27;20059;-64
2024/01/12 00:23:39;;;;;;;15.55;4.40;;;1.80;99.90;;;;;;5087881;28;20491;-67
2024/01/12 00:26:05;;;;;;;11.20;3.92;;;1.80;99.90;;;;;;5093608;28;20052;-64
2024/01/12 00:28:32;;;;;;;15.48;4.40;;;1.80;99.90;;;;;;5086313;28;20055;-64
2024/01/12 00:30:57;;;;;;;12.10;3.90;;;2.10;99.90;;;;;;5097609;28;20047;-64
2024/01/12 00:33:23;;;;;;;16.98;4.53;;;2.20;99.90;;;;;;5085762;27;20048;-64
2024/01/12 00:35:49;;;;;;;15.27;4.97;;;1.70;99.90;;;;;;5101701;28;20032;-64
2024/01/12 00:38:15;;;;;;;19.60;5.78;;;1.80;99.90;;;;;;5101909;28;20112;-64
2024/01/12 00:40:41;;;;;;;14.48;5.05;;;1.80;99.90;;;;;;5127934;27;20048;-64
2024/01/12 00:43:07;;;;;;;11.57;4.45;;;1.70;99.90;;;;;;5098175;28;20079;-64
2024/01/12 00:45:33;;;;;;;13.57;4.75;;;1.70;99.90;;;;;;5091648;28;20658;-64
2024/01/12 00:47:59;;;;;;;10.30;4.40;;;1.70;99.90;;;;;;5088878;28;20062;-64
2024/01/12 00:50:25;;;;;;;10.45;4.53;;;1.80;99.90;;;;;;5084400;28;20048;-64
2024/01/12 00:52:51;;;;;;;17.92;5.18;;;1.80;99.90;;;;;;5097484;28;20047;-65
2024/01/12 00:55:18;;;;;;;10.98;4.13;;;1.80;99.90;;;;;;5091579;28;20122;-65
2024/01/12 00:57:43;;;;;;;12.80;4.50;;;1.80;99.90;;;;;;5093769;28;20047;-65
2024/01/12 01:00:09;;;;;;;15.57;5.10;;;1.70;99.90;;;;;;5084887;28;20066;-64
2024/01/12 01:02:35;;;;;;;11.23;4.05;;;1.70;99.90;;;;;;5101379;28;20032;-65
2024/01/12 01:05:02;;;;;;;14.32;5.28;;;2.40;99.90;;;;;;5087060;28;20044;-64
2024/01/12 01:07:28;;;;;;;13.27;4.50;;;1.70;99.90;;;;;;5099115;28;20155;-64
2024/01/12 01:09:54;;;;;;;11.82;4.32;;;1.70;99.90;;;;;;5084799;28;20082;-65
2024/01/12 01:12:20;;;;;;;13.38;4.20;;;1.80;99.90;;;;;;5094074;28;20556;-64
2024/01/12 01:14:46;;;;;;;12.43;4.30;;;1.80;99.90;;;;;;5090002;28;20300;-65
2024/01/12 01:17:12;;;;;;;12.32;4.30;;;1.70;99.90;;;;;;5090789;28;20148;-64
2024/01/12 01:19:38;;;;;;;14.90;4.78;;;1.80;99.90;;;;;;5083335;27;20839;-64
2024/01/12 01:22:04;;;;;;;11.00;3.67;;;1.70;99.90;;;;;;5093658;28;20056;-64
2024/01/12 01:24:30;;;;;;;11.40;4.60;;;1.70;99.90;;;;;;5127728;27;20530;-65
2024/01/12 01:26:57;;;;;;;8.18;3.78;;;1.70;99.90;;;;;;5096855;28;20132;-64
2024/01/12 01:29:22;;;;;;;12.20;4.10;;;1.70;99.90;;;;;;5100990;28;20051;-63
2024/01/12 01:31:48;;;;;;;12.45;3.97;;;1.70;99.90;;;;;;5100115;28;20044;-64
2024/01/12 01:34:15;;;;;;;10.30;4.10;;;1.70;99.90;;;;;;5084119;28;20082;-64
2024/01/12 01:36:40;;;;;;;8.32;3.78;;;1.70;99.90;;;;;;5098591;28;20114;-64
2024/01/12 01:39:06;;;;;;;12.63;4.05;;;1.60;99.90;;;;;;5100750;28;20460;-65
2024/01/12 01:41:32;;;;;;;12.07;4.00;;;1.60;99.90;;;;;;5101102;28;20047;-64
2024/01/12 01:43:57;;;;;;;15.02;4.28;;;1.60;99.90;;;;;;5085085;28;20562;-65
2024/01/12 01:46:25;;;;;;;9.27;3.70;;;1.60;99.90;;;;;;5083795;28;20405;-64
2024/01/12 01:48:53;;;;;;;9.65;3.75;;;1.60;99.90;;;;;;5099638;28;20108;-64
2024/01/12 01:51:19;;;;;;;11.30;3.78;;;1.50;99.90;;;;;;5097732;28;20365;-64
2024/01/12 01:53:46;;;;;;;8.13;3.88;;;1.60;99.90;;;;;;5099347;28;20502;-65
2024/01/12 01:56:12;;;;;;;11.52;4.00;;;1.50;99.90;;;;;;5099521;28;20044;-65
2024/01/12 01:58:38;;;;;;;11.13;3.70;;;1.50;99.90;;;;;;5098553;28;20709;-65
2024/01/12 02:01:05;;;;;;;9.38;4.22;;;1.50;99.90;;;;;;5102505;28;20039;-66
2024/01/12 02:03:32;;;;;;;8.60;3.88;;;1.50;99.90;;;;;;5118370;27;20124;-64
2024/01/12 02:05:57;;;;;;;12.30;3.88;;;1.50;99.90;;;;;;5104733;28;20059;-64
2024/01/12 02:08:26;;;;;;;10.93;3.67;;;1.50;99.90;;;;;;5103397;27;20051;-66
2024/01/12 02:10:53;;;;;;;9.45;3.92;;;1.40;99.90;;;;;;5104016;28;20100;-65
2024/01/12 02:13:22;;;;;;;13.55;3.75;;;1.40;99.90;;;;;;5102356;28;20146;-64
2024/01/12 02:15:48;;;;;;;7.60;3.22;;;1.40;99.90;;;;;;5104162;28;20144;-65
2024/01/12 02:18:13;;;;;;;8.32;3.85;;;1.40;99.90;;;;;;5102058;28;20079;-64
2024/01/12 02:20:39;;;;;;;10.52;3.20;;;1.70;99.90;;;;;;5103484;28;20047;-64
2024/01/12 02:23:05;;;;;;;10.52;3.63;;;1.40;99.90;;;;;;5085379;28;20100;-64
2024/01/12 02:25:31;;;;;;;8.52;4.05;;;1.40;99.90;;;;;;5102573;28;20047;-63
2024/01/12 02:27:57;;;;;;;10.75;3.70;;;1.40;99.90;;;;;;5103761;28;20048;-63
2024/01/12 02:30:23;;;;;;;11.98;3.83;;;1.40;99.90;;;;;;5102047;28;20074;-64
2024/01/12 02:32:48;;;;;;;8.18;3.20;;;1.50;99.90;;;;;;5101332;28;20040;-64
2024/01/12 02:35:14;;;;;;;10.55;4.05;;;1.30;99.90;;;;;;5087911;28;20568;-64
2024/01/12 02:37:40;;;;;;;11.02;4.25;;;1.40;99.90;;;;;;5100774;28;20044;-64
2024/01/12 02:40:06;;;;;;;8.90;3.97;;;1.40;99.90;;;;;;5104100;28;20043;-64
2024/01/12 02:42:32;;;;;;;7.90;3.40;;;1.30;99.90;;;;;;5102864;28;20036;-64
2024/01/12 02:44:58;;;;;;;9.18;4.15;;;1.40;99.90;;;;;;5104591;28;20193;-64
2024/01/12 02:47:23;;;;;;;13.63;4.78;;;1.30;99.90;;;;;;5102815;28;20294;-64
2024/01/12 02:49:49;;;;;;;13.55;4.70;;;1.40;99.90;;;;;;5105617;28;20399;-64
2024/01/12 02:52:15;;;;;;;9.52;4.32;;;1.30;99.90;;;;;;5102872;28;20104;-64
2024/01/12 02:54:41;;;;;;;10.85;4.47;;;1.30;99.90;;;;;;5103969;28;20039;-64
2024/01/12 02:57:06;;;;;;;16.95;4.63;;;1.30;99.90;;;;;;5088472;27;20039;-64
2024/01/12 02:59:32;;;;;;;15.45;4.82;;;1.60;99.90;;;;;;5100518;27;20492;-63
2024/01/12 03:01:58;;;;;;;12.35;4.90;;;1.30;99.90;;;;;;5102148;28;20412;-63
2024/01/12 03:04:23;;;;;;;17.27;4.82;;;1.20;99.90;;;;;;5136111;27;20571;-64
2024/01/12 03:06:49;;;;;;;15.80;5.28;;;1.20;99.90;;;;;;5102688;28;20054;-64
2024/01/12 03:09:15;;;;;;;10.98;4.15;;;1.50;99.90;;;;;;5105056;28;20043;-64
2024/01/12 03:11:40;;;;;;;10.43;4.05;;;1.20;99.90;;;;;;5101687;28;20047;-64
2024/01/12 03:14:06;;;;;;;10.05;4.68;;;1.10;99.90;;;;;;5103728;28;20043;-64
2024/01/12 03:16:32;;;;;;;11.13;3.88;;;1.90;99.90;;;;;;5100498;28;20039;-63
2024/01/12 03:18:58;;;;;;;14.15;4.60;;;1.20;99.90;;;;;;5104055;28;20039;-64
2024/01/12 03:21:23;;;;;;;9.00;4.40;;;1.10;99.90;;;;;;5101007;28;20044;-64
2024/01/12 03:23:49;;;;;;;16.48;4.50;;;1.10;99.90;;;;;;5102107;28;20415;-64
2024/01/12 03:26:15;;;;;;;10.20;4.38;;;1.10;99.90;;;;;;5105075;28;20036;-64
2024/01/12 03:28:40;;;;;;;12.75;4.20;;;1.10;99.90;;;;;;5103904;28;20069;-64
2024/01/12 03:31:06;;;;;;;10.80;4.30;;;1.10;99.90;;;;;;5101163;28;20667;-64
2024/01/12 03:33:32;;;;;;;9.07;4.20;;;1.10;99.90;;;;;;5103671;28;20043;-64
2024/01/12 03:35:58;;;;;;;8.40;3.85;;;1.20;99.90;;;;;;5086108;28;20062;-64
2024/01/12 03:38:24;;;;;;;14.63;4.57;;;1.10;99.90;;;;;;5101103;28;20075;-64
2024/01/12 03:40:50;;;;;;;9.30;3.95;;;1.70;99.90;;;;;;5084612;28;20079;-64
2024/01/12 03:43:16;;;;;;;9.52;4.03;;;1.10;99.90;;;;;;5101950;28;20113;-64
2024/01/12 03:45:41;;;;;;;11.25;4.10;;;2.40;99.90;;;;;;5101265;28;20055;-64
2024/01/12 03:48:07;;;;;;;9.73;4.38;;;1.10;99.90;;;;;;5101336;28;20112;-64
2024/01/12 03:50:33;;;;;;;10.02;4.10;;;2.00;99.90;;;;;;5086685;28;20062;-63
2024/01/12 03:52:59;;;;;;;14.25;4.90;;;1.20;99.90;;;;;;5102667;28;20761;-64
2024/01/12 03:55:24;;;;;;;17.45;4.65;;;1.70;99.90;;;;;;5100371;28;20519;-64
2024/01/12 03:57:50;;;;;;;12.82;4.55;;;1.20;99.90;;;;;;5103194;28;20040;-64
2024/01/12 04:00:16;;;;;;;12.05;4.45;;;1.20;99.90;;;;;;5100140;28;20052;-64
2024/01/12 04:02:42;;;;;;;11.63;4.07;;;1.20;99.90;;;;;;5102976;28;20048;-64
2024/01/12 04:05:09;;;;;;;12.25;4.35;;;1.20;99.90;;;;;;5102503;28;20032;-64
2024/01/12 04:07:35;;;;;;;10.00;4.72;;;1.20;99.90;;;;;;5102826;28;20059;-64
2024/01/12 04:10:01;;;;;;;16.83;4.75;;;1.10;99.90;;;;;;5099598;28;20480;-64
2024/01/12 04:12:26;;;;;;;11.57;4.57;;;1.20;99.90;;;;;;5100387;28;20250;-64
2024/01/12 04:14:52;;;;;;;12.45;4.47;;;1.20;99.90;;;;;;5099065;28;20143;-65
2024/01/12 04:17:18;;;;;;;16.75;5.00;;;1.20;99.90;;;;;;5101626;28;20039;-63
2024/01/12 04:19:43;;;;;;;16.63;4.70;;;1.20;99.90;;;;;;5099517;28;20039;-64
2024/01/12 04:22:09;;;;;;;10.23;4.50;;;1.20;99.90;;;;;;5103218;28;20039;-64
2024/01/12 04:24:35;;;;;;;9.93;3.95;;;1.20;99.90;;;;;;5100767;28;20399;-63
2024/01/12 04:27:00;;;;;;;13.77;4.53;;;1.20;99.90;;;;;;5084931;28;20049;-64
2024/01/12 04:29:26;;;;;;;12.00;4.70;;;1.20;99.90;;;;;;5101764;28;20043;-64
2024/01/12 04:31:52;;;;;;;13.60;4.20;;;1.20;99.90;;;;;;5102379;28;20108;-64
2024/01/12 04:34:17;;;;;;;15.13;4.40;;;1.20;99.90;;;;;;5103713;28;20038;-64
2024/01/12 04:36:43;;;;;;;9.52;4.95;;;1.20;99.90;;;;;;5103030;28;20043;-64
2024/01/12 04:39:09;;;;;;;11.20;3.90;;;1.20;99.90;;;;;;5086240;28;20053;-64
2024/01/12 04:41:34;;;;;;;12.85;4.53;;;1.20;99.90;;;;;;5101501;28;20546;-64
2024/01/12 04:44:00;;;;;;;15.23;4.22;;;1.20;99.90;;;;;;5099966;28;20051;-64
2024/01/12 04:46:27;;;;;;;13.98;3.70;;;1.20;99.90;;;;;;5135138;27;20415;-64
2024/01/12 04:48:53;;;;;;;10.27;3.80;;;1.50;99.90;;;;;;5119603;27;20714;-64
2024/01/12 04:51:19;;;;;;;11.95;3.83;;;2.10;99.90;;;;;;5100103;28;20119;-64
2024/01/12 04:53:44;;;;;;;12.88;4.10;;;1.30;99.90;;;;;;5135688;27;20051;-64
2024/01/12 04:56:10;;;;;;;11.25;4.35;;;1.30;99.90;;;;;;5100993;28;20044;-64
2024/01/12 04:58:36;;;;;;;11.27;4.13;;;1.30;99.90;;;;;;5101375;28;20119;-64
2024/01/12 05:01:01;;;;;;;12.02;3.88;;;0.80;99.90;;;;;;5101794;28;20032;-64
2024/01/12 05:03:27;;;;;;;14.38;4.45;;;2.20;99.90;;;;;;5084507;28;20054;-64
2024/01/12 05:05:53;;;;;;;10.65;4.63;;;1.30;99.90;;;;;;5101936;28;20067;-64
2024/01/12 05:08:19;;;;;;;12.20;4.15;;;1.30;99.90;;;;;;5101489;28;20040;-64
2024/01/12 05:10:44;;;;;;;16.02;4.63;;;1.30;99.90;;;;;;5101379;28;20036;-64
2024/01/12 05:13:10;;;;;;;14.85;5.00;;;1.70;99.90;;;;;;5101533;28;20267;-64
2024/01/12 05:15:36;;;;;;;10.27;4.45;;;1.30;99.90;;;;;;5100987;28;20071;-64
2024/01/12 05:18:02;;;;;;;11.80;4.53;;;1.30;99.90;;;;;;5100389;28;20749;-64
2024/01/12 05:20:29;;;;;;;12.65;4.00;;;1.30;99.90;;;;;;5131707;27;20048;-64
2024/01/12 05:22:54;;;;;;;16.27;5.05;;;1.30;99.90;;;;;;5101323;28;20043;-64
2024/01/12 05:25:20;;;;;;;9.20;4.13;;;1.30;99.90;;;;;;5085822;28;20092;-65
2024/01/12 05:27:46;;;;;;;11.57;4.38;;;1.40;99.90;;;;;;5087591;28;20047;-65
2024/01/12 05:30:12;;;;;;;14.98;4.60;;;1.40;99.90;;;;;;5101381;28;20484;-65
2024/01/12 05:32:38;;;;;;;16.70;5.15;;;1.40;99.90;;;;;;5100830;28;20054;-65
2024/01/12 05:35:04;;;;;;;11.13;4.80;;;1.40;99.90;;;;;;5102158;28;20044;-64
2024/01/12 05:37:30;;;;;;;12.85;4.70;;;1.40;99.90;;;;;;5087415;28;20040;-64
2024/01/12 05:39:55;;;;;;;14.60;4.53;;;1.40;99.90;;;;;;5105352;28;20573;-64
2024/01/12 05:42:21;;;;;;;11.82;4.57;;;1.40;99.90;;;;;;5088871;28;20087;-65
2024/01/12 05:44:47;;;;;;;15.00;5.25;;;1.40;99.90;;;;;;5086659;28;20391;-64
2024/01/12 05:47:13;;;;;;;14.38;4.63;;;1.90;99.90;;;;;;5107240;28;20119;-64
2024/01/12 05:49:39;;;;;;;14.32;4.60;;;1.40;99.90;;;;;;5100377;28;20094;-64
2024/01/12 05:52:05;;;;;;;13.73;4.57;;;1.40;99.90;;;;;;5089266;28;20083;-64
2024/01/12 05:54:31;;;;;;;13.20;4.75;;;1.40;99.90;;;;;;5103964;28;20062;-64
2024/01/12 05:56:56;;;;;;;13.95;5.07;;;1.40;99.90;;;;;;5104952;28;20107;-64
2024/01/12 05:59:22;;;;;;;20.98;5.20;;;1.40;99.90;;;;;;5089603;28;20079;-64
2024/01/12 06:01:48;;;;;;;18.70;5.07;;;1.70;99.90;;;;;;5086310;28;20047;-66
2024/01/12 06:04:13;;;;;;;15.60;5.68;;;1.40;99.90;;;;;;5101042;28;20047;-66
2024/01/12 06:06:42;;;;;;;16.20;4.80;;;1.50;99.90;;;;;;5105616;28;20039;-66
2024/01/12 06:09:08;;;;;;;11.98;5.10;;;1.50;99.90;;;;;;5085996;28;20130;-66
2024/01/12 06:11:34;;;;;;;23.02;5.18;;;1.50;99.90;;;;;;5104018;28;20758;-66
2024/01/12 06:14:00;;;;;;;17.13;5.22;;;1.50;99.90;;;;;;5105952;28;20487;-67
2024/01/12 06:16:26;;;;;;;17.88;5.45;;;1.50;99.90;;;;;;5104589;28;20043;-66
2024/01/12 06:18:52;;;;;;;18.73;5.88;;;1.60;99.90;;;;;;5087635;28;20040;-66
2024/01/12 06:21:18;;;;;;;24.55;5.35;;;1.60;99.90;;;;;;5104160;28;20067;-66
2024/01/12 06:23:43;;;;;;;14.70;4.82;;;1.60;99.90;;;;;;5105749;28;20051;-66
2024/01/12 06:26:10;;;;;;;24.23;6.03;;;2.50;99.90;;;;;;5106167;28;20032;-66
2024/01/12 06:28:36;;;;;;;16.65;5.38;;;1.60;99.90;;;;;;5107448;28;20063;-66
2024/01/12 06:31:02;;;;;;;20.80;5.78;;;1.60;99.90;;;;;;5099980;28;20450;-66
2024/01/12 06:33:31;;;;;;;20.65;5.20;;;1.70;99.90;;;;;;5126168;27;20051;-66
2024/01/12 06:35:57;;;;;;;23.60;4.78;;;1.70;99.90;;;;;;5104584;28;20386;-66
2024/01/12 06:38:23;;;;;;;19.67;4.95;;;1.70;99.90;;;;;;5079617;28;20529;-65
2024/01/12 06:40:49;;;;;;;16.98;4.75;;;2.20;99.90;;;;;;5089158;28;20048;-64
2024/01/12 06:43:15;;;;;;;24.67;4.70;;;1.90;99.90;;;;;;5093159;28;20526;-64
2024/01/12 06:45:40;;;;;;;16.25;5.18;;;1.80;99.90;;;;;;5094262;28;20397;-64
2024/01/12 06:48:06;;;;;;;18.77;5.18;;;1.80;99.90;;;;;;5094467;28;20042;-64
2024/01/12 06:50:33;;;;;;;19.02;5.07;;;1.80;99.90;;;;;;5103312;27;20047;-64
2024/01/12 06:53:00;;;;;;;15.27;4.05;;;1.80;99.90;;;;;;5103492;28;20059;-63
2024/01/12 06:55:26;;;;;;;17.30;3.95;;;1.90;99.90;;;;;;5096017;28;20067;-64
2024/01/12 06:57:52;;;;;;;21.70;3.92;;;1.80;99.90;;;;;;5083277;28;20490;-65
2024/01/12 07:00:19;;;;;;;18.85;4.22;;;1.90;99.90;;;;;;5098020;28;20031;-64
2024/01/12 07:02:45;;;;;;;19.27;4.47;;;1.90;99.90;;;;;;5086779;28;20412;-63
2024/01/12 07:05:11;;;;;;;18.60;3.88;;;1.90;99.90;;;;;;5097154;28;20042;-64
2024/01/12 07:07:36;;;;;;;12.30;3.65;;;1.90;99.90;;;;;;5095198;28;20048;-64
2024/01/12 07:10:02;;;;;;;18.83;3.50;;;1.90;99.90;;;;;;5087533;28;20619;-64
2024/01/12 07:12:28;;;;;;;16.05;3.67;;;1.90;99.90;;;;;;5101843;27;20070;-64
2024/01/12 07:14:53;;;;;;;20.48;3.58;;;1.90;99.90;;;;;;5096486;28;20127;-64
2024/01/12 07:17:20;;;;;;;16.42;3.75;;;2.00;99.90;;;;;;5092596;28;20044;-64
2024/01/12 07:19:46;;;;;;;14.05;3.03;;;2.50;99.90;;;;;;5082393;28;20047;-64
2024/01/12 07:22:12;;;;;;;21.63;3.65;;;2.00;99.90;;;;;;5094618;28;20702;-64
2024/01/12 07:24:37;;;;;;;11.73;2.83;;;2.00;99.90;;;;;;5136733;27;20389;-64
2024/01/12 07:27:03;;;;;;;22.65;3.22;;;2.00;99.90;;;;;;5086819;28;21158;-65
2024/01/12 07:29:29;;;;;;;15.32;2.95;;;2.00;99.90;;;;;;5104017;28;20519;-64
2024/01/12 07:31:56;;;;;;;23.95;3.40;;;2.00;99.90;;;;;;5087055;28;20085;-65
2024/01/12 07:34:22;;;;;;;17.75;3.10;;;2.00;99.90;;;;;;5105765;28;20086;-65
2024/01/12 07:36:48;;;;;;;21.10;3.00;;;2.30;99.90;;;;;;5101838;28;20134;-65
2024/01/12 07:39:13;;;;;;;17.80;2.83;;;2.00;99.90;;;;;;5075951;28;20927;-64
2024/01/12 07:41:39;;;;;;;14.13;2.80;;;2.10;99.90;;;;;;5092156;28;20062;-65
2024/01/12 07:44:07;;;;;;;12.85;1.95;;;2.30;99.90;;;;;;5089231;28;20078;-65
2024/01/12 07:46:33;;;;;;;21.75;3.17;;;2.10;99.90;;;;;;5117727;27;20055;-64
2024/01/12 07:48:59;;;;;;;16.75;3.00;;;2.10;99.90;;;;;;5082719;28;20040;-65
2024/01/12 07:51:25;;;;;;;14.93;2.30;;;2.10;99.90;;;;;;5089412;28;20043;-65
2024/01/12 07:53:51;;;;;;;20.63;2.83;;;2.20;99.90;;;;;;5089815;28;20044;-65
2024/01/12 07:56:17;;;;;;;18.17;2.70;;;2.40;99.90;;;;;;5090708;28;20404;-65
2024/01/12 07:58:43;;;;;;;25.23;2.75;;;2.20;99.90;;;;;;5089342;28;20119;-65
2024/01/12 08:01:13;;;;;;;18.25;2.65;;;2.30;99.90;;;;;;5096890;28;20598;-65
2024/01/12 08:03:40;;;;;;;15.15;2.38;;;2.30;99.90;;;;;;5099048;27;20078;-64
2024/01/12 08:06:06;;;;;;;15.70;2.35;;;2.30;99.90;;;;;;5103358;28;20104;-64
2024/01/12 08:08:31;;;;;;;17.73;2.30;;;2.30;99.90;;;;;;5122522;27;20051;-64
2024/01/12 08:10:57;;;;;;;19.92;2.67;;;2.60;99.90;;;;;;5090099;28;20036;-64
2024/01/12 08:13:26;;;;;;;17.23;2.17;;;2.30;99.90;;;;;;5088323;28;20040;-65
2024/01/12 08:15:51;;;;;;;16.95;2.17;;;2.70;99.90;;;;;;5091907;28;20049;-64
2024/01/12 08:18:18;;;;;;;21.48;2.72;;;2.30;99.90;;;;;;5125323;27;20040;-64
2024/01/12 08:20:45;;;;;;;15.00;2.13;;;2.30;99.90;;;;;;5123221;27;20040;-64
2024/01/12 08:23:11;;;;;;;17.55;2.72;;;2.40;99.90;;;;;;5090886;28;20044;-64
2024/01/12 08:25:38;;;;;;;18.88;2.80;;;2.40;99.90;;;;;;5091627;28;20058;-65
2024/01/12 08:28:03;;;;;;;28.85;3.13;;;2.40;99.90;;;;;;5091199;28;20043;-65
2024/01/12 08:30:29;;;;;;;16.30;2.45;;;2.40;99.90;;;;;;5088749;28;20526;-64
2024/01/12 08:32:55;;;;;;;12.93;1.90;;;2.50;99.90;;;;;;5088021;28;20476;-65
2024/01/12 08:35:21;;;;;;;17.48;2.50;;;2.50;99.90;;;;;;5092821;28;20131;-65
2024/01/12 08:37:46;;;;;;;19.42;3.05;;;2.50;99.90;;;;;;5090742;28;20040;-64
2024/01/12 08:40:12;;;;;;;21.75;2.42;;;2.50;99.90;;;;;;5092512;28;20667;-64
2024/01/12 08:42:39;;;;;;;17.70;2.50;;;2.40;99.90;;;;;;5094605;28;20055;-64
2024/01/12 08:45:05;;;;;;;20.35;2.42;;;2.60;99.90;;;;;;5128244;27;20069;-63
2024/01/12 08:47:31;;;;;;;16.92;2.72;;;2.50;99.90;;;;;;5101922;28;20071;-64
2024/01/12 08:49:58;;;;;;;19.45;3.28;;;3.20;99.90;;;;;;5079917;28;20589;-65
2024/01/12 08:52:24;;;;;;;19.40;3.15;;;2.60;99.90;;;;;;5102921;28;20697;-64
2024/01/12 08:54:49;;;;;;;24.08;2.65;;;2.70;99.90;;;;;;5101329;28;20400;-64
2024/01/12 08:57:15;;;;;;;18.83;3.42;;;2.70;99.90;;;;;;5097259;28;20047;-64
2024/01/12 08:59:41;;;;;;;21.67;2.90;;;2.80;99.90;;;;;;5128223;27;20097;-64
2024/01/12 09:02:07;;;;;;;12.98;2.67;;;2.80;99.90;;;;;;5101643;28;20062;-65
2024/01/12 09:04:34;;;;;;;16.45;2.85;;;2.80;99.90;;;;;;5094099;28;20294;-65
2024/01/12 09:07:00;;;;;;;18.50;2.42;;;2.80;99.90;;;;;;5088142;28;20051;-65
2024/01/12 09:09:25;;;;;;;21.92;2.70;;;2.80;99.90;;;;;;5096173;28;20028;-65
2024/01/12 09:11:52;;;;;;;20.02;3.30;;;2.80;99.90;;;;;;5104205;28;20127;-65
2024/01/12 09:14:18;;;;;;;17.38;2.03;;;2.90;99.90;;;;;;5105203;28;20666;-65
2024/01/12 09:16:43;;;;;;;18.05;2.78;;;2.90;99.90;;;;;;5102306;28;20183;-65
2024/01/12 09:19:09;;;;;;;16.67;2.13;;;2.90;99.90;;;;;;5102952;28;20051;-65
2024/01/12 09:21:35;;;;;;;16.92;2.30;;;2.90;99.90;;;;;;5101658;28;20036;-65
2024/01/12 09:24:01;;;;;;;15.55;2.47;;;2.90;99.90;;;;;;5105025;28;20040;-65
2024/01/12 09:26:26;;;;;;;29.95;3.05;;;3.00;99.90;;;;;;5138303;27;20081;-66
2024/01/12 09:28:52;;;;;;;17.92;2.22;;;3.00;99.90;;;;;;5105109;28;20031;-65
2024/01/12 09:31:18;;;;;;;15.45;2.58;;;3.30;99.90;;;;;;5103523;28;20043;-65
2024/01/12 09:33:43;;;;;;;15.35;2.47;;;3.10;99.90;;;;;;5086556;28;20048;-65
2024/01/12 09:36:09;;;;;;;19.80;3.15;;;3.10;99.90;;;;;;5102332;28;20043;-65
2024/01/12 09:38:35;;;;;;;19.15;2.65;;;3.20;99.90;;;;;;5104159;28;20059;-65
2024/01/12 09:41:05;;;;;;;21.77;2.22;;;3.20;99.90;;;;;;5103533;28;20583;-65
2024/01/12 09:43:35;;;;;;;12.82;1.67;;;3.30;99.90;;;;;;5105356;28;20139;-65
2024/01/12 09:46:06;;;;;;;15.70;2.05;;;3.30;99.90;;;;;;5104374;28;20035;-65
2024/01/12 09:48:33;;;;;;;10.75;1.77;;;3.30;99.90;;;;;;5105192;28;20071;-65
2024/01/12 09:50:59;;;;;;;15.82;1.67;;;3.30;99.90;;;;;;5103846;28;20061;-65
2024/01/12 09:53:24;;;;;;;14.75;1.80;;;3.30;99.90;;;;;;5103996;28;20054;-66
2024/01/12 09:55:50;;;;;;;13.80;2.17;;;3.30;99.90;;;;;;5137421;27;20041;-65
2024/01/12 09:58:17;;;;;;;13.23;1.55;;;3.40;99.90;;;;;;5106559;28;20035;-65
2024/01/12 10:00:45;;;;;;;14.45;2.00;;;3.40;99.90;;;;;;5104032;28;20070;-65
2024/01/12 10:03:11;;;;;;;22.08;3.65;;;3.40;99.90;;;;;;5102958;28;20490;-66
2024/01/12 10:05:37;;;;;;;12.88;2.38;;;3.40;99.90;;;;;;5103653;28;20046;-65
2024/01/12 10:08:06;;;;;;;14.32;1.77;;;3.40;99.90;;;;;;5086771;28;20039;-65
2024/01/12 10:10:32;;;;;;;9.48;1.88;;;3.40;99.90;;;;;;5088943;28;20054;-65
2024/01/12 10:12:57;;;;;;;13.20;1.95;;;3.40;99.90;;;;;;5105745;27;20052;-65
2024/01/12 10:15:24;;;;;;;17.77;3.05;;;3.50;99.90;;;;;;5105326;27;20415;-65
2024/01/12 10:17:51;;;;;;;16.20;2.35;;;3.50;99.90;;;;;;5103966;28;20035;-65
2024/01/12 10:20:17;;;;;;;16.65;2.47;;;3.50;99.90;;;;;;5102072;28;20050;-66
2024/01/12 10:22:43;;;;;;;14.10;2.03;;;3.50;99.90;;;;;;5106293;28;20658;-65
2024/01/12 10:25:09;;;;;;;16.58;2.13;;;3.50;99.90;;;;;;5103058;28;20046;-65
2024/01/12 10:27:34;;;;;;;22.52;2.25;;;3.60;99.90;;;;;;5104337;28;20617;-65
2024/01/12 10:30:00;;;;;;;23.00;2.97;;;3.60;99.90;;;;;;5106177;28;20062;-65
2024/01/12 10:32:26;;;;;;;13.85;1.95;;;3.60;99.90;;;;;;5107074;27;20046;-66
2024/01/12 10:34:53;;;;;;;31.30;3.35;;;3.60;99.90;;;;;;5104952;28;20050;-65
2024/01/12 10:37:20;;;;;;;17.92;2.10;;;3.60;99.90;;;;;;5104982;28;20400;-65
2024/01/12 10:39:53;;;;;;;17.42;2.10;;;3.70;99.90;;;;;;5087665;28;20138;-65
2024/01/12 10:42:20;;;;;;;22.73;3.05;;;3.70;99.90;;;;;;5103713;27;20823;-65
2024/01/12 10:44:50;;;;;;;21.95;2.47;;;3.70;99.90;;;;;;5104870;27;20039;-65
2024/01/12 10:47:18;;;;;;;23.75;2.47;;;3.70;99.90;;;;;;5103555;28;20085;-66
2024/01/12 10:50:08;;;;;;;21.70;2.55;;;3.70;99.90;;;;;;5101372;28;20060;-65
2024/01/12 10:53:25;;;;;;;19.05;2.22;;;3.80;99.90;;;;;;5104647;28;20039;-65
2024/01/12 10:55:55;;;;;;;16.27;2.08;;;3.80;99.90;;;;;;5060851;28;20578;-67
2024/01/12 10:58:21;;;;;;;18.45;2.88;;;3.90;99.90;;;;;;5105586;28;20054;-65
2024/01/12 11:00:47;;;;;;;25.63;3.00;;;4.00;99.90;;;;;;5136701;27;20461;-66
2024/01/12 11:03:16;;;;;;;22.05;3.03;;;3.90;99.90;;;;;;5102158;28;20055;-65
2024/01/12 11:05:43;;;;;;;20.70;2.47;;;4.00;99.90;;;;;;5102591;28;20044;-65
2024/01/12 11:08:14;;;;;;;21.20;3.00;;;4.20;99.90;;;;;;5100338;28;20039;-65
2024/01/12 11:10:46;;;;;;;25.88;3.88;;;4.00;99.90;;;;;;5101600;28;20056;-65
2024/01/12 11:13:16;;;;;;;19.33;2.25;;;4.00;99.90;;;;;;5102363;28;20134;-65
2024/01/12 11:15:42;;;;;;;23.52;2.55;;;4.00;99.90;;;;;;5101715;28;20052;-65
2024/01/12 11:18:08;;;;;;;25.52;2.65;;;4.00;99.90;;;;;;5097264;28;20043;-65
2024/01/12 11:20:34;;;;;;;28.02;3.60;;;4.00;99.90;;;;;;5100924;28;20045;-64
2024/01/12 11:23:01;;;;;;;14.88;2.28;;;4.00;99.90;;;;;;5101858;28;20035;-65
2024/01/12 11:25:27;;;;;;;19.13;3.22;;;4.10;99.90;;;;;;5101029;28;20055;-65
2024/01/12 11:27:53;;;;;;;17.08;2.63;;;4.10;99.90;;;;;;5100423;28;20035;-65
2024/01/12 11:30:20;;;;;;;25.25;3.03;;;4.10;99.90;;;;;;5134215;27;20458;-66
2024/01/12 11:32:47;;;;;;;24.45;3.13;;;4.10;99.90;;;;;;5084923;28;20051;-65
2024/01/12 11:35:17;;;;;;;15.02;2.75;;;4.20;99.90;;;;;;5105675;28;20365;-65
2024/01/12 11:37:45;;;;;;;20.40;3.15;;;4.20;99.90;;;;;;5099751;28;20051;-65
2024/01/12 11:40:15;;;;;;;19.58;2.33;;;4.20;99.90;;;;;;5136496;27;20043;-65
2024/01/12 11:42:43;;;;;;;20.77;2.63;;;4.20;99.90;;;;;;5103125;28;20047;-65
2024/01/12 11:45:11;;;;;;;18.02;2.72;;;4.20;99.90;;;;;;5100573;28;20055;-65
2024/01/12 11:47:41;;;;;;;19.33;3.10;;;4.20;99.90;;;;;;5085447;28;20059;-65
2024/01/12 11:50:08;;;;;;;17.13;2.53;;;4.20;99.90;;;;;;5085131;28;20047;-65
2024/01/12 11:52:36;;;;;;;22.67;3.38;;;4.20;99.90;;;;;;5100318;28;20051;-65
2024/01/12 11:55:07;;;;;;;22.23;3.28;;;4.30;99.90;;;;;;5137436;27;20099;-65
2024/01/12 11:57:34;;;;;;;24.13;3.42;;;4.30;99.90;;;;;;5105070;28;20039;-65
2024/01/12 12:00:00;;;;;;;22.83;2.95;;;4.30;99.90;;;;;;5084118;28;20047;-65
2024/01/12 12:02:25;;;;;;;19.67;3.53;;;4.30;99.90;;;;;;5102293;28;20039;-65
2024/01/12 12:04:51;;;;;;;23.27;2.78;;;4.30;99.90;;;;;;5102325;28;20550;-65
2024/01/12 12:07:27;;;;;;;17.60;2.63;;;4.30;99.90;;;;;;5099299;28;20100;-65
2024/01/12 12:09:53;;;;;;;19.33;2.30;;;4.30;99.90;;;;;;5099674;28;20075;-65
2024/01/12 12:12:22;;;;;;;24.85;2.50;;;4.30;99.90;;;;;;5103301;28;20457;-66
2024/01/12 12:15:05;;;;;;;26.95;2.83;;;4.40;99.90;;;;;;5101152;28;20047;-65
2024/01/12 12:17:32;;;;;;;22.90;2.95;;;4.30;99.90;;;;;;5084081;28;20446;-65
2024/01/12 12:19:58;;;;;;;24.73;3.35;;;4.40;99.90;;;;;;5082743;28;20039;-65
2024/01/12 12:22:24;;;;;;;24.40;3.10;;;4.40;99.90;;;;;;5102045;28;20040;-65
2024/01/12 12:24:50;;;;;;;15.23;2.25;;;4.50;99.90;;;;;;5104252;28;20500;-65
2024/01/12 12:27:18;;;;;;;15.40;2.67;;;4.40;99.90;;;;;;5084119;28;20035;-65
2024/01/12 12:29:44;;;;;;;25.05;2.83;;;4.40;99.90;;;;;;5117761;27;20043;-65
2024/01/12 12:32:12;;;;;;;16.80;3.05;;;4.50;99.90;;;;;;5101170;28;20407;-65
2024/01/12 12:34:39;;;;;;;19.88;2.58;;;4.40;99.90;;;;;;5098054;28;20060;-65
2024/01/12 12:37:13;;;;;;;18.20;2.38;;;3.90;99.90;;;;;;5105278;27;20071;-65
2024/01/12 12:39:39;;;;;;;18.70;2.60;;;4.40;99.90;;;;;;5091128;28;20055;-65
2024/01/12 12:42:06;;;;;;;21.17;2.58;;;4.40;99.90;;;;;;5109760;27;20442;-65
2024/01/12 12:44:35;;;;;;;17.35;2.35;;;4.60;99.90;;;;;;5090234;28;20496;-66